createdAt,value
2017-10-05T00:00:57.151Z,94577.02
2017-10-05T00:03:24.850Z,94575.34
2017-10-05T00:05:52.659Z,94576.34
2017-10-05T00:08:20.313Z,94571.94
2017-10-05T00:10:48.013Z,94569.27
2017-10-05T00:13:15.670Z,94562.25
2017-10-05T00:15:43.618Z,94563.95
2017-10-05T00:18:11.290Z,94554.88
2017-10-05T00:20:38.953Z,94556.67
2017-10-05T00:23:06.666Z,94560.56
2017-10-05T00:25:34.389Z,94560.75
2017-10-05T00:28:02.192Z,94564.72
2017-10-05T00:33:02.837Z,94566.73
2017-10-05T00:35:30.603Z,94563.13
2017-10-05T00:37:58.281Z,94562.70
2017-10-05T00:40:26.028Z,94559.13
2017-10-05T00:42:53.814Z,94563.72
2017-10-05T00:45:21.527Z,94563.41
2017-10-05T00:47:49.276Z,94559.77
2017-10-05T00:50:17.107Z,94564.05
2017-10-05T00:52:44.838Z,94568.89
2017-10-05T00:55:12.644Z,94572.41
2017-10-05T00:57:40.453Z,94571.34
2017-10-05T01:00:08.643Z,94571.96
2017-10-05T01:02:36.322Z,94571.58
2017-10-05T01:05:04.037Z,94573.63
2017-10-05T01:07:31.773Z,94572.28
2017-10-05T01:09:59.444Z,94578.26
2017-10-05T01:12:27.303Z,94577.58
2017-10-05T01:14:55.003Z,94571.31
2017-10-05T01:17:22.690Z,94570.62
2017-10-05T01:19:50.649Z,94573.27
2017-10-05T01:22:18.400Z,94565.84
2017-10-05T01:24:46.169Z,94558.30
2017-10-05T01:27:14.009Z,94563.61
2017-10-05T01:29:41.740Z,94565.21
2017-10-05T01:32:09.456Z,94551.33
2017-10-05T01:34:37.127Z,94547.19
2017-10-05T01:37:04.986Z,94536.91
2017-10-05T01:39:32.708Z,94530.97
2017-10-05T01:42:00.393Z,94524.95
2017-10-05T01:44:29.115Z,94526.32
2017-10-05T01:46:56.786Z,94525.77
2017-10-05T01:49:24.552Z,94528.74
2017-10-05T01:51:52.252Z,94526.72
2017-10-05T01:54:20.032Z,94509.06
2017-10-05T01:56:47.951Z,94502.30
2017-10-05T01:59:15.681Z,94505.69
2017-10-05T02:01:43.453Z,94491.75
2017-10-05T02:04:11.169Z,94491.08
2017-10-05T02:06:38.899Z,94489.98
2017-10-05T02:09:06.624Z,94492.67
2017-10-05T02:11:34.461Z,94498.19
2017-10-05T02:14:02.173Z,94492.30
2017-10-05T02:16:29.891Z,94476.27
2017-10-05T02:18:57.611Z,94475.48
2017-10-05T02:21:25.292Z,94474.23
2017-10-05T02:23:53.044Z,94471.19
2017-10-05T02:26:20.725Z,94463.20
2017-10-05T02:28:48.452Z,94465.36
2017-10-05T02:31:16.096Z,94467.55
2017-10-05T02:33:43.824Z,94453.03
2017-10-05T02:36:11.501Z,94451.22
2017-10-05T02:38:39.237Z,94448.62
2017-10-05T02:41:06.959Z,94446.02
2017-10-05T02:43:34.795Z,94448.83
2017-10-05T02:46:02.453Z,94449.55
2017-10-05T02:48:30.197Z,94443.67
2017-10-05T02:50:58.015Z,94446.45
2017-10-05T02:53:25.710Z,94444.56
2017-10-05T02:55:53.409Z,94433.94
2017-10-05T02:58:21.260Z,94430.41
2017-10-05T03:00:48.950Z,94424.55
2017-10-05T03:03:16.806Z,94428.03
2017-10-05T03:05:44.491Z,94418.16
2017-10-05T03:08:12.319Z,94413.59
2017-10-05T03:10:39.984Z,94416.37
2017-10-05T03:13:07.698Z,94422.05
2017-10-05T03:15:35.417Z,94402.94
2017-10-05T03:18:03.093Z,94402.05
2017-10-05T03:20:30.816Z,94398.16
2017-10-05T03:22:58.507Z,94391.89
2017-10-05T03:25:26.234Z,94391.39
2017-10-05T03:27:55.330Z,94381.13
2017-10-05T03:30:23.003Z,94382.63
2017-10-05T03:32:50.728Z,94375.47
2017-10-05T03:35:18.493Z,94366.89
2017-10-05T03:37:46.305Z,94359.52
2017-10-05T03:40:14.005Z,94356.62
2017-10-05T03:42:41.724Z,94358.52
2017-10-05T03:45:09.510Z,94357.95
2017-10-05T03:47:37.203Z,94347.89
2017-10-05T03:50:04.904Z,94351.07
2017-10-05T03:52:32.684Z,94343.30
2017-10-05T03:55:00.439Z,94343.51
2017-10-05T03:57:28.178Z,94342.91
2017-10-05T03:59:55.988Z,94335.75
2017-10-05T04:02:23.731Z,94340.70
2017-10-05T04:04:51.464Z,94338.21
2017-10-05T04:07:19.152Z,94334.66
2017-10-05T04:09:46.888Z,94330.75
2017-10-05T04:12:14.660Z,94340.52
2017-10-05T04:14:42.359Z,94332.87
2017-10-05T04:17:10.322Z,94330.86
2017-10-05T04:19:38.003Z,94327.48
2017-10-05T04:22:05.684Z,94322.72
2017-10-05T04:24:33.469Z,94324.00
2017-10-05T04:27:01.217Z,94328.19
2017-10-05T04:29:28.922Z,94322.02
2017-10-05T04:31:56.696Z,94309.06
2017-10-05T04:34:24.417Z,94309.18
2017-10-05T04:36:52.128Z,94304.39
2017-10-05T04:39:19.836Z,94313.25
2017-10-05T04:41:47.680Z,94308.28
2017-10-05T04:44:15.420Z,94311.47
2017-10-05T04:46:43.401Z,94313.53
2017-10-05T04:49:11.270Z,94304.80
2017-10-05T04:51:38.964Z,94309.08
2017-10-05T04:54:06.754Z,94304.70
2017-10-05T04:56:34.827Z,94307.98
2017-10-05T04:59:02.559Z,94298.61
2017-10-05T05:01:30.338Z,94294.33
2017-10-05T05:03:58.133Z,94287.17
2017-10-05T05:06:25.853Z,94279.03
2017-10-05T05:08:53.690Z,94269.67
2017-10-05T05:11:21.422Z,94268.77
2017-10-05T05:13:49.137Z,94264.20
2017-10-05T05:16:16.898Z,94259.52
2017-10-05T05:18:44.597Z,94251.06
2017-10-05T05:21:12.858Z,94259.42
2017-10-05T05:23:40.579Z,94248.45
2017-10-05T05:26:08.489Z,94241.91
2017-10-05T05:28:36.223Z,94238.81
2017-10-05T05:31:05.521Z,94232.27
2017-10-05T05:33:33.476Z,94235.45
2017-10-05T05:36:01.308Z,94232.56
2017-10-05T05:38:29.028Z,94228.69
2017-10-05T05:40:56.765Z,94222.13
2017-10-05T05:43:24.523Z,94220.51
2017-10-05T05:45:52.272Z,94217.22
2017-10-05T05:48:20.840Z,94221.70
2017-10-05T05:50:48.533Z,94223.89
2017-10-05T05:53:16.282Z,94219.41
2017-10-05T05:55:44.088Z,94227.25
2017-10-05T05:58:11.840Z,94223.46
2017-10-05T06:00:39.732Z,94217.55
2017-10-05T06:03:07.519Z,94229.98
2017-10-05T06:05:35.346Z,94224.84
2017-10-05T06:08:03.054Z,94225.29
2017-10-05T06:10:31.016Z,94218.22
2017-10-05T06:12:58.827Z,94216.11
2017-10-05T06:15:26.563Z,94210.39
2017-10-05T06:17:55.027Z,94207.22
2017-10-05T06:20:22.821Z,94208.56
2017-10-05T06:22:50.588Z,94207.09
2017-10-05T06:25:18.293Z,94204.53
2017-10-05T06:27:46.044Z,94212.78
2017-10-05T06:30:13.776Z,94194.44
2017-10-05T06:32:41.544Z,94194.27
2017-10-05T06:35:09.225Z,94193.66
2017-10-05T06:37:36.923Z,94181.70
2017-10-05T06:40:04.725Z,94183.33
2017-10-05T06:42:32.421Z,94178.63
2017-10-05T06:45:00.097Z,94177.81
2017-10-05T06:47:28.010Z,94181.17
2017-10-05T06:49:55.707Z,94180.31
2017-10-05T06:52:23.412Z,94179.47
2017-10-05T06:54:51.536Z,94174.48
2017-10-05T06:57:19.633Z,94177.08
2017-10-05T06:59:47.462Z,94166.00
2017-10-05T07:02:15.168Z,94176.28
2017-10-05T07:04:43.077Z,94176.22
2017-10-05T07:07:10.821Z,94171.23
2017-10-05T07:09:38.591Z,94172.73
2017-10-05T07:12:06.352Z,94168.44
2017-10-05T07:14:34.107Z,94170.13
2017-10-05T07:17:01.868Z,94159.66
2017-10-05T07:19:29.596Z,94159.94
2017-10-05T07:21:57.344Z,94159.59
2017-10-05T07:24:25.080Z,94161.03
2017-10-05T07:26:52.810Z,94161.94
2017-10-05T07:29:21.477Z,94162.59
2017-10-05T07:31:49.617Z,94155.95
2017-10-05T07:34:17.398Z,94150.98
2017-10-05T07:36:45.197Z,94149.95
2017-10-05T07:39:13.776Z,94140.48
2017-10-05T07:41:41.536Z,94134.03
2017-10-05T07:44:09.642Z,94131.53
2017-10-05T07:46:37.385Z,94127.30
2017-10-05T07:49:05.074Z,94128.30
2017-10-05T07:51:32.835Z,94121.20
2017-10-05T07:54:00.633Z,94119.03
2017-10-05T07:56:28.700Z,94112.33
2017-10-05T07:58:56.478Z,94106.95
2017-10-05T08:01:24.209Z,94102.37
2017-10-05T08:03:52.028Z,94098.41
2017-10-05T08:06:19.781Z,94095.14
2017-10-05T08:08:47.498Z,94087.08
2017-10-05T08:11:15.300Z,94087.11
2017-10-05T08:13:43.035Z,94082.73
2017-10-05T08:16:10.902Z,94074.73
2017-10-05T08:18:38.600Z,94071.42
2017-10-05T08:21:06.290Z,94074.84
2017-10-05T08:23:34.056Z,94072.86
2017-10-05T08:26:01.779Z,94063.63
2017-10-05T08:28:29.502Z,94062.09
2017-10-05T08:30:57.260Z,94052.14
2017-10-05T08:33:24.961Z,94053.44
2017-10-05T08:35:52.860Z,94043.84
2017-10-05T08:38:20.769Z,94044.12
2017-10-05T08:40:48.462Z,94032.81
2017-10-05T08:43:16.186Z,94028.75
2017-10-05T08:45:43.885Z,94026.11
2017-10-05T08:48:11.639Z,94020.89
2017-10-05T08:50:39.368Z,94011.02
2017-10-05T08:53:08.317Z,94001.81
2017-10-05T08:55:36.103Z,94002.09
2017-10-05T08:58:03.861Z,94004.14
2017-10-05T09:00:31.563Z,93992.77
2017-10-05T09:02:59.428Z,93990.70
2017-10-05T09:05:27.536Z,93995.63
2017-10-05T09:07:55.313Z,93992.44
2017-10-05T09:10:23.053Z,93979.56
2017-10-05T09:12:50.906Z,93975.77
2017-10-05T09:15:18.622Z,93967.05
2017-10-05T09:17:46.427Z,93974.31
2017-10-05T09:20:14.175Z,93959.33
2017-10-05T09:22:43.287Z,93959.33
2017-10-05T09:25:11.017Z,93954.91
2017-10-05T09:27:38.711Z,93945.92
2017-10-05T09:30:06.476Z,93946.20
2017-10-05T09:32:34.198Z,93946.52
2017-10-05T09:35:02.003Z,93942.13
2017-10-05T09:37:29.734Z,93943.30
2017-10-05T09:39:57.492Z,93935.69
2017-10-05T09:42:25.260Z,93938.56
2017-10-05T09:44:52.969Z,93938.05
2017-10-05T09:47:20.667Z,93934.52
2017-10-05T09:49:49.344Z,93927.69
2017-10-05T09:52:17.108Z,93933.17
2017-10-05T09:54:45.267Z,93919.53
2017-10-05T09:57:12.936Z,93917.00
2017-10-05T09:59:40.682Z,93920.80
2017-10-05T10:02:08.400Z,93913.33
2017-10-05T10:04:36.121Z,93901.09
2017-10-05T10:07:03.879Z,93892.21
2017-10-05T10:09:32.203Z,93891.14
2017-10-05T10:12:00.076Z,93893.05
2017-10-05T10:14:28.422Z,93881.44
2017-10-05T10:16:56.678Z,93882.13
2017-10-05T10:19:25.886Z,93875.23
2017-10-05T10:21:53.693Z,93864.49
2017-10-05T10:24:21.595Z,93867.73
2017-10-05T10:26:49.351Z,93857.67
2017-10-05T10:29:17.160Z,93847.23
2017-10-05T10:31:44.906Z,93851.19
2017-10-05T10:34:12.703Z,93854.35
2017-10-05T10:36:40.702Z,93849.81
2017-10-05T10:39:08.482Z,93844.63
2017-10-05T10:41:36.335Z,93834.24
2017-10-05T10:44:04.133Z,93825.02
2017-10-05T10:46:31.879Z,93818.23
2017-10-05T10:48:59.635Z,93818.72
2017-10-05T10:51:27.795Z,93814.06
2017-10-05T10:53:55.555Z,93801.95
2017-10-05T10:56:23.318Z,93800.33
2017-10-05T10:58:51.093Z,93787.95
2017-10-05T11:01:18.898Z,93789.15
2017-10-05T11:03:46.625Z,93781.70
2017-10-05T11:06:14.355Z,93769.55
2017-10-05T11:08:42.090Z,93774.19
2017-10-05T11:11:09.901Z,93767.39
2017-10-05T11:13:37.596Z,93759.95
2017-10-05T11:16:05.278Z,93740.98
2017-10-05T11:18:33.052Z,93741.73
2017-10-05T11:21:00.742Z,93737.56
2017-10-05T11:23:28.675Z,93727.92
2017-10-05T11:25:56.391Z,93716.41
2017-10-05T11:28:24.144Z,93706.98
2017-10-05T11:30:51.903Z,93701.74
2017-10-05T11:33:19.711Z,93698.03
2017-10-05T11:35:47.464Z,93687.20
2017-10-05T11:38:15.176Z,93675.84
2017-10-05T11:40:42.904Z,93674.75
2017-10-05T11:43:10.674Z,93657.27
2017-10-05T11:45:38.444Z,93642.89
2017-10-05T11:48:06.146Z,93633.70
2017-10-05T11:50:33.926Z,93631.09
2017-10-05T11:53:01.616Z,93628.17
2017-10-05T11:55:29.330Z,93616.66
2017-10-05T11:57:57.058Z,93607.04
2017-10-05T12:00:24.848Z,93598.31
2017-10-05T12:02:52.587Z,93591.59
2017-10-05T12:05:20.334Z,93587.38
2017-10-05T12:07:48.094Z,93574.59
2017-10-05T12:10:15.891Z,93570.55
2017-10-05T12:12:43.629Z,93572.12
2017-10-05T12:15:11.340Z,93574.42
2017-10-05T12:17:39.099Z,93578.80
2017-10-05T12:20:06.880Z,93567.02
2017-10-05T12:22:34.554Z,93559.77
2017-10-05T12:25:02.296Z,93553.24
2017-10-05T12:27:30.105Z,93547.77
2017-10-05T12:29:57.989Z,93546.22
2017-10-05T12:32:25.708Z,93535.91
2017-10-05T12:34:53.399Z,93529.20
2017-10-05T12:37:21.240Z,93527.58
2017-10-05T12:39:48.956Z,93522.20
2017-10-05T12:42:16.783Z,93514.77
2017-10-05T12:44:44.557Z,93510.92
2017-10-05T12:47:12.372Z,93516.16
2017-10-05T12:49:40.189Z,93513.82
2017-10-05T12:52:08.440Z,93506.09
2017-10-05T12:54:36.147Z,93492.26
2017-10-05T12:57:04.066Z,93495.42
2017-10-05T12:59:31.937Z,93488.67
2017-10-05T13:02:00.025Z,93490.03
2017-10-05T13:04:27.882Z,93486.47
2017-10-05T13:06:55.597Z,93474.14
2017-10-05T13:09:23.345Z,93469.66
2017-10-05T13:11:51.176Z,93468.97
2017-10-05T13:14:18.868Z,93463.83
2017-10-05T13:16:46.578Z,93460.61
2017-10-05T13:19:14.340Z,93447.87
2017-10-05T13:21:42.085Z,93438.91
2017-10-05T13:24:09.808Z,93433.27
2017-10-05T13:26:37.594Z,93433.47
2017-10-05T13:29:05.335Z,93429.70
2017-10-05T13:31:33.173Z,93422.98
2017-10-05T13:34:00.964Z,93417.77
2017-10-05T13:36:28.705Z,93413.06
2017-10-05T13:38:57.236Z,93411.34
2017-10-05T13:41:25.112Z,93412.75
2017-10-05T13:43:52.810Z,93411.53
2017-10-05T13:46:20.976Z,93415.21
2017-10-05T13:48:50.119Z,93415.11
2017-10-05T13:51:17.825Z,93411.84
2017-10-05T13:53:45.868Z,93405.35
2017-10-05T13:56:13.681Z,93401.09
2017-10-05T13:58:41.370Z,93398.28
2017-10-05T14:01:09.135Z,93398.63
2017-10-05T14:03:36.867Z,93394.71
2017-10-05T14:06:05.297Z,93391.73
2017-10-05T14:08:33.007Z,93389.75
2017-10-05T14:11:00.744Z,93392.73
2017-10-05T14:13:28.522Z,93392.73
2017-10-05T14:15:56.389Z,93393.37
2017-10-05T14:18:24.084Z,93401.38
2017-10-05T14:20:51.807Z,93387.16
2017-10-05T14:23:19.636Z,93397.12
2017-10-05T14:25:48.088Z,93401.39
2017-10-05T14:28:15.899Z,93405.17
2017-10-05T14:30:43.604Z,93398.37
2017-10-05T14:33:11.284Z,93398.73
2017-10-05T14:35:39.024Z,93394.75
2017-10-05T14:38:06.783Z,93391.64
2017-10-05T14:40:36.265Z,93394.27
2017-10-05T14:43:05.189Z,93395.98
2017-10-05T14:45:33.906Z,93386.84
2017-10-05T14:48:02.472Z,93382.41
2017-10-05T14:50:30.241Z,93373.30
2017-10-05T14:52:58.041Z,93381.49
2017-10-05T14:55:28.162Z,93380.89
2017-10-05T14:57:55.975Z,93378.53
2017-10-05T15:00:24.672Z,93370.19
2017-10-05T15:02:52.381Z,93369.34
2017-10-05T15:05:20.311Z,93365.80
2017-10-05T15:07:48.033Z,93362.40
2017-10-05T15:10:16.767Z,93361.41
2017-10-05T15:12:44.515Z,93361.69
2017-10-05T15:15:12.879Z,93343.83
2017-10-05T15:17:40.731Z,93359.80
2017-10-05T15:20:08.505Z,93346.42
2017-10-05T15:22:36.303Z,93344.61
2017-10-05T15:25:04.143Z,93354.91
2017-10-05T15:27:31.986Z,93348.41
2017-10-05T15:29:59.729Z,93346.92
2017-10-05T15:32:27.471Z,93343.92
2017-10-05T15:34:55.190Z,93339.98
2017-10-05T15:37:23.021Z,93336.98
2017-10-05T15:39:50.789Z,93340.41
2017-10-05T15:42:18.548Z,93338.78
2017-10-05T15:44:46.430Z,93333.50
2017-10-05T15:47:14.122Z,93340.27
2017-10-05T15:49:41.851Z,93333.76
2017-10-05T15:52:09.614Z,93327.67
2017-10-05T15:54:37.445Z,93340.11
2017-10-05T15:57:05.235Z,93337.87
2017-10-05T15:59:32.950Z,93334.98
2017-10-05T16:02:00.790Z,93326.39
2017-10-05T16:04:28.500Z,93331.16
2017-10-05T16:06:56.278Z,93335.39
2017-10-05T16:09:24.098Z,93308.03
2017-10-05T16:11:51.972Z,93336.53
2017-10-05T16:14:19.776Z,93337.46
2017-10-05T16:16:47.752Z,93333.69
2017-10-05T16:19:15.536Z,93336.77
2017-10-05T16:21:43.464Z,93334.91
2017-10-05T16:24:11.747Z,93323.03
2017-10-05T16:26:39.843Z,93327.55
2017-10-05T16:29:07.970Z,93325.17
2017-10-05T16:31:36.580Z,93323.96
2017-10-05T16:34:04.358Z,93314.08
2017-10-05T16:36:32.205Z,93304.66
2017-10-05T16:38:59.976Z,93292.50
2017-10-05T16:41:28.504Z,93292.75
2017-10-05T16:43:57.147Z,93282.72
2017-10-05T16:46:25.774Z,93270.80
2017-10-05T16:48:53.651Z,93272.58
2017-10-05T16:51:21.406Z,93262.08
2017-10-05T16:53:50.479Z,93256.72
2017-10-05T16:56:18.242Z,93265.34
2017-10-05T16:58:45.948Z,93268.91
2017-10-05T17:01:13.750Z,93260.58
2017-10-05T17:03:41.530Z,93251.28
2017-10-05T17:06:09.305Z,93246.48
2017-10-05T17:08:37.017Z,93244.45
2017-10-05T17:11:04.737Z,93236.27
2017-10-05T17:13:32.600Z,93243.88
2017-10-05T17:16:00.401Z,93246.59
2017-10-05T17:18:28.109Z,93243.82
2017-10-05T17:20:55.857Z,93256.05
2017-10-05T17:23:23.598Z,93277.70
2017-10-05T17:25:51.281Z,93284.12
2017-10-05T17:28:19.042Z,93273.52
2017-10-05T17:30:46.798Z,93299.54
2017-10-05T17:33:14.541Z,93300.64
2017-10-05T17:35:42.782Z,93304.70
2017-10-05T17:38:10.575Z,93310.81
2017-10-05T17:40:38.360Z,93327.84
2017-10-05T17:43:06.162Z,93323.56
2017-10-05T17:45:33.960Z,93337.41
2017-10-05T17:48:01.770Z,93350.66
2017-10-05T17:50:29.506Z,93350.34
2017-10-05T17:52:57.486Z,93372.20
2017-10-05T17:55:25.246Z,93375.02
2017-10-05T17:57:53.000Z,93406.39
2017-10-05T18:00:20.835Z,93411.97
2017-10-05T18:02:48.593Z,93439.65
2017-10-05T18:05:16.416Z,93480.20
2017-10-05T18:07:44.707Z,93484.20
2017-10-05T18:10:12.672Z,93506.67
2017-10-05T18:12:40.412Z,93519.47
2017-10-05T18:15:08.229Z,93540.89
2017-10-05T18:17:35.947Z,93526.91
2017-10-05T18:20:03.824Z,93545.98
2017-10-05T18:22:31.705Z,93555.73
2017-10-05T18:24:59.525Z,93553.16
2017-10-05T18:27:27.380Z,93557.98
2017-10-05T18:29:55.321Z,93580.22
2017-10-05T18:38:07.101Z,93583.08
2017-10-05T18:40:34.943Z,93579.98
2017-10-05T18:43:02.644Z,93581.17
2017-10-05T18:45:30.502Z,93577.02
2017-10-05T18:47:58.182Z,93580.55
2017-10-05T18:50:25.864Z,93585.31
2017-10-05T18:52:53.653Z,93575.39
2017-10-05T18:55:21.372Z,93592.38
2017-10-05T18:57:49.083Z,93605.48
2017-10-05T19:00:16.882Z,93609.41
2017-10-05T19:02:44.626Z,93622.62
2017-10-05T19:05:12.310Z,93610.19
2017-10-05T19:07:40.071Z,93625.49
2017-10-05T19:10:07.780Z,93623.28
2017-10-05T19:12:35.587Z,93626.64
2017-10-05T19:15:03.365Z,93634.63
2017-10-05T19:17:31.224Z,93649.61
2017-10-05T19:19:59.023Z,93640.73
2017-10-05T19:22:27.407Z,93651.41
2017-10-05T19:24:55.188Z,93626.68
2017-10-05T19:27:22.959Z,93632.42
2017-10-05T19:29:50.684Z,93645.23
2017-10-05T19:32:18.473Z,93643.05
2017-10-05T19:34:46.381Z,93639.08
2017-10-05T19:37:14.153Z,93648.98
2017-10-05T19:39:42.102Z,93657.27
2017-10-05T19:42:10.115Z,93660.59
2017-10-05T19:44:39.074Z,93663.15
2017-10-05T19:47:06.919Z,93660.54
2017-10-05T19:49:34.803Z,93659.64
2017-10-05T19:52:03.633Z,93657.71
2017-10-05T19:54:34.039Z,93657.04
2017-10-05T19:57:02.389Z,93649.63
2017-10-05T19:59:30.303Z,93661.66
2017-10-05T20:01:58.133Z,93666.70
2017-10-05T20:04:26.075Z,93668.03
2017-10-05T20:06:53.820Z,93668.20
2017-10-05T20:09:21.611Z,93672.06
2017-10-05T20:26:14.840Z,93686.58
2017-10-05T20:28:45.166Z,93680.72
2017-10-05T20:34:21.958Z,93688.23
2017-10-05T20:36:51.825Z,93702.50
2017-10-05T20:39:19.573Z,93693.61
2017-10-05T20:41:47.389Z,93706.45
2017-10-05T20:44:15.212Z,93709.88
2017-10-05T20:46:42.955Z,93705.32
2017-10-05T20:49:10.753Z,93707.41
2017-10-05T20:51:38.625Z,93710.09
2017-10-05T20:54:06.477Z,93717.71
2017-10-05T20:56:34.312Z,93713.25
2017-10-05T20:59:02.057Z,93701.79
2017-10-05T21:01:29.917Z,93704.82
2017-10-05T21:03:57.668Z,93702.52
2017-10-05T21:06:25.400Z,93698.15
2017-10-05T21:08:53.172Z,93704.64
2017-10-05T21:11:20.901Z,93710.98
2017-10-05T21:13:48.677Z,93716.53
2017-10-05T21:16:16.415Z,93724.48
2017-10-05T21:18:44.199Z,93726.18
2017-10-05T21:21:11.911Z,93727.63
2017-10-05T21:23:39.980Z,93733.95
2017-10-05T21:26:07.736Z,93736.64
2017-10-05T21:28:35.441Z,93735.94
2017-10-05T21:31:03.204Z,93738.38
2017-10-05T21:33:30.919Z,93736.37
2017-10-05T21:35:58.744Z,93736.80
2017-10-05T21:38:26.597Z,93743.53
2017-10-05T21:40:54.298Z,93756.84
2017-10-05T21:43:21.993Z,93749.56
2017-10-05T21:45:49.743Z,93765.67
2017-10-05T21:48:17.439Z,93775.39
2017-10-05T21:50:45.393Z,93775.75
2017-10-05T21:53:13.148Z,93793.03
2017-10-05T21:55:40.852Z,93791.97
2017-10-05T21:58:08.646Z,93783.47
2017-10-05T22:00:36.396Z,93784.00
2017-10-05T22:03:04.133Z,93779.95
2017-10-05T22:05:31.897Z,93789.69
2017-10-05T22:07:59.588Z,93803.58
2017-10-05T22:10:27.363Z,93813.72
2017-10-05T22:12:55.120Z,93808.34
2017-10-05T22:15:22.856Z,93804.44
2017-10-05T22:17:50.562Z,93794.30
2017-10-05T22:20:18.316Z,93803.17
2017-10-05T22:22:46.088Z,93814.95
2017-10-05T22:25:13.810Z,93822.63
2017-10-05T22:27:41.501Z,93827.81
2017-10-05T22:30:09.371Z,93830.40
2017-10-05T22:32:37.639Z,93849.00
2017-10-05T22:35:05.359Z,93868.36
2017-10-05T22:37:33.242Z,93869.24
2017-10-05T22:40:00.986Z,93864.81
2017-10-05T22:42:29.353Z,93863.05
2017-10-05T22:44:57.099Z,93866.23
2017-10-05T22:47:24.793Z,93879.59
2017-10-05T22:49:52.605Z,93897.73
2017-10-05T22:52:20.350Z,93900.41
2017-10-05T22:54:48.111Z,93897.56
2017-10-05T22:57:16.813Z,93892.25
2017-10-05T22:59:44.531Z,93892.66
2017-10-05T23:02:12.261Z,93893.61
2017-10-05T23:04:39.947Z,93895.59
2017-10-05T23:07:07.796Z,93922.34
2017-10-05T23:09:35.508Z,93921.56
2017-10-05T23:12:03.227Z,93920.04
2017-10-05T23:14:31.006Z,93919.56
2017-10-05T23:16:58.781Z,93929.38
2017-10-05T23:19:26.462Z,93947.13
2017-10-05T23:21:54.163Z,93937.62
2017-10-05T23:24:21.931Z,93935.23
2017-10-05T23:26:49.633Z,93941.84
2017-10-05T23:29:17.630Z,93948.86
2017-10-05T23:31:46.453Z,93957.67
2017-10-05T23:34:14.173Z,93968.38
2017-10-05T23:36:41.986Z,93974.70
2017-10-05T23:39:09.691Z,93977.64
2017-10-05T23:41:37.396Z,93973.63
2017-10-05T23:44:05.220Z,93977.13
2017-10-05T23:46:32.917Z,93975.44
2017-10-05T23:49:00.625Z,93997.01
2017-10-05T23:51:28.360Z,94006.88
2017-10-05T23:53:56.050Z,94003.51
2017-10-05T23:56:23.916Z,94010.72
2017-10-05T23:58:52.007Z,94023.72
